sensor_id;sensor_type;location;lat;lon;timestamp;P1;durP1;ratioP1;P2;durP2;ratioP2
75400;SDS011;63974;47.538;18.972;2024-03-06T00:00:31;34.53;;;14.57;;
75400;SDS011;63974;47.538;18.972;2024-03-06T00:03:35;35.27;;;15.03;;
75400;SDS011;63974;47.538;18.972;2024-03-06T00:06:38;34.50;;;15.30;;
75400;SDS011;63974;47.538;18.972;2024-03-06T00:09:40;34.33;;;15.18;;
75400;SDS011;63974;47.538;18.972;2024-03-06T00:12:43;34.97;;;16.23;;
75400;SDS011;63974;47.538;18.972;2024-03-06T00:15:46;37.30;;;16.07;;
75400;SDS011;63974;47.538;18.972;2024-03-06T00:18:48;36.67;;;16.23;;
75400;SDS011;63974;47.538;18.972;2024-03-06T00:21:51;31.58;;;14.73;;
75400;SDS011;63974;47.538;18.972;2024-03-06T00:24:54;40.03;;;16.85;;
75400;SDS011;63974;47.538;18.972;2024-03-06T00:27:57;40.38;;;17.58;;
75400;SDS011;63974;47.538;18.972;2024-03-06T00:31:00;38.20;;;16.57;;
75400;SDS011;63974;47.538;18.972;2024-03-06T00:34:02;38.87;;;16.57;;
75400;SDS011;63974;47.538;18.972;2024-03-06T00:37:05;41.80;;;17.10;;
75400;SDS011;63974;47.538;18.972;2024-03-06T00:40:08;37.95;;;17.02;;
75400;SDS011;63974;47.538;18.972;2024-03-06T00:43:11;41.05;;;16.70;;
75400;SDS011;63974;47.538;18.972;2024-03-06T00:46:13;34.73;;;15.13;;
75400;SDS011;63974;47.538;18.972;2024-03-06T00:49:16;33.13;;;15.33;;
75400;SDS011;63974;47.538;18.972;2024-03-06T00:52:19;37.13;;;14.48;;
75400;SDS011;63974;47.538;18.972;2024-03-06T00:55:21;31.60;;;13.18;;
75400;SDS011;63974;47.538;18.972;2024-03-06T00:58:24;31.48;;;13.38;;
75400;SDS011;63974;47.538;18.972;2024-03-06T01:01:27;29.00;;;12.70;;
75400;SDS011;63974;47.538;18.972;2024-03-06T01:04:30;36.33;;;14.57;;
75400;SDS011;63974;47.538;18.972;2024-03-06T01:07:33;32.03;;;14.05;;
75400;SDS011;63974;47.538;18.972;2024-03-06T01:10:37;28.17;;;12.80;;
75400;SDS011;63974;47.538;18.972;2024-03-06T01:13:40;25.77;;;12.20;;
75400;SDS011;63974;47.538;18.972;2024-03-06T01:16:43;29.07;;;12.80;;
75400;SDS011;63974;47.538;18.972;2024-03-06T01:19:45;29.87;;;12.93;;
75400;SDS011;63974;47.538;18.972;2024-03-06T01:22:48;25.85;;;11.82;;
75400;SDS011;63974;47.538;18.972;2024-03-06T01:25:51;33.13;;;12.35;;
75400;SDS011;63974;47.538;18.972;2024-03-06T01:28:54;23.63;;;11.32;;
75400;SDS011;63974;47.538;18.972;2024-03-06T01:31:57;29.87;;;12.90;;
75400;SDS011;63974;47.538;18.972;2024-03-06T01:35:00;27.17;;;10.73;;
75400;SDS011;63974;47.538;18.972;2024-03-06T01:38:03;27.45;;;11.77;;
75400;SDS011;63974;47.538;18.972;2024-03-06T01:41:06;26.08;;;11.57;;
75400;SDS011;63974;47.538;18.972;2024-03-06T01:44:09;28.90;;;11.55;;
75400;SDS011;63974;47.538;18.972;2024-03-06T01:47:12;33.37;;;12.83;;
75400;SDS011;63974;47.538;18.972;2024-03-06T01:50:15;30.97;;;12.93;;
75400;SDS011;63974;47.538;18.972;2024-03-06T01:53:18;25.33;;;11.00;;
75400;SDS011;63974;47.538;18.972;2024-03-06T01:56:21;27.40;;;11.45;;
75400;SDS011;63974;47.538;18.972;2024-03-06T01:59:24;23.83;;;10.52;;
75400;SDS011;63974;47.538;18.972;2024-03-06T02:02:38;25.27;;;11.43;;
75400;SDS011;63974;47.538;18.972;2024-03-06T02:05:40;27.77;;;11.93;;
75400;SDS011;63974;47.538;18.972;2024-03-06T02:08:43;27.27;;;11.73;;
75400;SDS011;63974;47.538;18.972;2024-03-06T02:11:46;24.50;;;11.10;;
75400;SDS011;63974;47.538;18.972;2024-03-06T02:14:49;24.17;;;10.35;;
75400;SDS011;63974;47.538;18.972;2024-03-06T02:17:52;25.73;;;11.23;;
75400;SDS011;63974;47.538;18.972;2024-03-06T02:20:55;26.57;;;11.07;;
75400;SDS011;63974;47.538;18.972;2024-03-06T02:23:58;29.55;;;11.75;;
75400;SDS011;63974;47.538;18.972;2024-03-06T02:27:01;23.02;;;10.18;;
75400;SDS011;63974;47.538;18.972;2024-03-06T02:30:03;20.63;;;10.45;;
75400;SDS011;63974;47.538;18.972;2024-03-06T02:33:07;21.13;;;10.03;;
75400;SDS011;63974;47.538;18.972;2024-03-06T02:36:16;26.63;;;11.10;;
75400;SDS011;63974;47.538;18.972;2024-03-06T02:39:20;23.13;;;10.68;;
75400;SDS011;63974;47.538;18.972;2024-03-06T02:42:23;25.88;;;11.23;;
75400;SDS011;63974;47.538;18.972;2024-03-06T02:45:26;26.45;;;10.38;;
75400;SDS011;63974;47.538;18.972;2024-03-06T02:48:29;26.23;;;10.17;;
75400;SDS011;63974;47.538;18.972;2024-03-06T02:51:31;25.70;;;11.03;;
75400;SDS011;63974;47.538;18.972;2024-03-06T02:54:34;26.00;;;11.00;;
75400;SDS011;63974;47.538;18.972;2024-03-06T02:57:37;25.00;;;11.32;;
75400;SDS011;63974;47.538;18.972;2024-03-06T03:00:40;27.08;;;11.38;;
75400;SDS011;63974;47.538;18.972;2024-03-06T03:03:45;27.47;;;11.13;;
75400;SDS011;63974;47.538;18.972;2024-03-06T03:06:49;29.33;;;11.80;;
75400;SDS011;63974;47.538;18.972;2024-03-06T03:09:52;27.65;;;11.65;;
75400;SDS011;63974;47.538;18.972;2024-03-06T03:12:54;26.85;;;11.05;;
75400;SDS011;63974;47.538;18.972;2024-03-06T03:15:57;26.90;;;11.30;;
75400;SDS011;63974;47.538;18.972;2024-03-06T03:19:00;23.70;;;11.10;;
75400;SDS011;63974;47.538;18.972;2024-03-06T03:22:03;27.17;;;11.47;;
75400;SDS011;63974;47.538;18.972;2024-03-06T03:25:07;24.08;;;10.75;;
75400;SDS011;63974;47.538;18.972;2024-03-06T03:28:10;26.23;;;10.40;;
75400;SDS011;63974;47.538;18.972;2024-03-06T03:31:13;25.40;;;10.88;;
75400;SDS011;63974;47.538;18.972;2024-03-06T03:34:16;23.17;;;10.53;;
75400;SDS011;63974;47.538;18.972;2024-03-06T03:37:18;25.50;;;11.27;;
75400;SDS011;63974;47.538;18.972;2024-03-06T03:40:21;24.55;;;11.05;;
75400;SDS011;63974;47.538;18.972;2024-03-06T03:43:25;24.90;;;11.23;;
75400;SDS011;63974;47.538;18.972;2024-03-06T03:46:28;24.98;;;10.68;;
75400;SDS011;63974;47.538;18.972;2024-03-06T03:49:34;26.10;;;12.93;;
75400;SDS011;63974;47.538;18.972;2024-03-06T03:52:37;29.57;;;12.53;;
75400;SDS011;63974;47.538;18.972;2024-03-06T03:55:44;26.35;;;10.15;;
75400;SDS011;63974;47.538;18.972;2024-03-06T03:58:47;27.80;;;11.23;;
75400;SDS011;63974;47.538;18.972;2024-03-06T04:01:50;25.60;;;10.90;;
75400;SDS011;63974;47.538;18.972;2024-03-06T04:04:53;24.10;;;11.13;;
75400;SDS011;63974;47.538;18.972;2024-03-06T04:07:55;29.50;;;11.37;;
75400;SDS011;63974;47.538;18.972;2024-03-06T04:10:59;25.15;;;11.00;;
75400;SDS011;63974;47.538;18.972;2024-03-06T04:14:02;28.45;;;11.27;;
75400;SDS011;63974;47.538;18.972;2024-03-06T04:17:05;24.55;;;11.23;;
75400;SDS011;63974;47.538;18.972;2024-03-06T04:20:08;29.13;;;10.60;;
75400;SDS011;63974;47.538;18.972;2024-03-06T04:23:14;27.60;;;10.87;;
75400;SDS011;63974;47.538;18.972;2024-03-06T04:26:17;22.50;;;10.43;;
75400;SDS011;63974;47.538;18.972;2024-03-06T04:29:20;23.38;;;9.52;;
75400;SDS011;63974;47.538;18.972;2024-03-06T04:32:23;24.48;;;10.18;;
75400;SDS011;63974;47.538;18.972;2024-03-06T04:35:25;21.50;;;9.63;;
75400;SDS011;63974;47.538;18.972;2024-03-06T04:38:28;25.40;;;10.30;;
75400;SDS011;63974;47.538;18.972;2024-03-06T04:41:31;27.55;;;11.23;;
75400;SDS011;63974;47.538;18.972;2024-03-06T04:44:34;25.05;;;11.02;;
75400;SDS011;63974;47.538;18.972;2024-03-06T04:47:37;29.25;;;12.88;;
75400;SDS011;63974;47.538;18.972;2024-03-06T04:50:40;27.20;;;12.57;;
75400;SDS011;63974;47.538;18.972;2024-03-06T04:53:43;27.03;;;11.97;;
75400;SDS011;63974;47.538;18.972;2024-03-06T04:56:46;26.70;;;12.38;;
75400;SDS011;63974;47.538;18.972;2024-03-06T04:59:49;24.73;;;11.35;;
75400;SDS011;63974;47.538;18.972;2024-03-06T05:02:52;23.45;;;11.27;;
75400;SDS011;63974;47.538;18.972;2024-03-06T05:06:12;30.60;;;10.93;;
75400;SDS011;63974;47.538;18.972;2024-03-06T05:09:32;24.20;;;12.03;;
75400;SDS011;63974;47.538;18.972;2024-03-06T05:12:54;27.55;;;10.75;;
75400;SDS011;63974;47.538;18.972;2024-03-06T05:16:14;25.80;;;10.13;;
75400;SDS011;63974;47.538;18.972;2024-03-06T05:19:34;26.08;;;10.93;;
75400;SDS011;63974;47.538;18.972;2024-03-06T05:22:54;28.33;;;11.53;;
75400;SDS011;63974;47.538;18.972;2024-03-06T05:26:15;25.13;;;10.47;;
75400;SDS011;63974;47.538;18.972;2024-03-06T05:29:36;22.42;;;10.10;;
75400;SDS011;63974;47.538;18.972;2024-03-06T05:32:56;26.45;;;10.80;;
75400;SDS011;63974;47.538;18.972;2024-03-06T05:36:16;26.05;;;10.38;;
75400;SDS011;63974;47.538;18.972;2024-03-06T05:39:37;26.90;;;10.73;;
75400;SDS011;63974;47.538;18.972;2024-03-06T05:42:59;21.60;;;9.90;;
75400;SDS011;63974;47.538;18.972;2024-03-06T05:46:19;27.52;;;11.02;;
75400;SDS011;63974;47.538;18.972;2024-03-06T05:49:39;23.63;;;10.35;;
75400;SDS011;63974;47.538;18.972;2024-03-06T05:52:59;24.80;;;10.75;;
75400;SDS011;63974;47.538;18.972;2024-03-06T05:56:19;22.80;;;10.77;;
75400;SDS011;63974;47.538;18.972;2024-03-06T05:59:40;21.87;;;10.27;;
75400;SDS011;63974;47.538;18.972;2024-03-06T06:02:42;24.67;;;10.85;;
75400;SDS011;63974;47.538;18.972;2024-03-06T06:05:47;23.80;;;10.73;;
75400;SDS011;63974;47.538;18.972;2024-03-06T06:08:49;23.42;;;11.43;;
75400;SDS011;63974;47.538;18.972;2024-03-06T06:11:53;27.90;;;13.00;;
75400;SDS011;63974;47.538;18.972;2024-03-06T06:14:56;30.37;;;14.10;;
75400;SDS011;63974;47.538;18.972;2024-03-06T06:17:58;29.00;;;12.48;;
75400;SDS011;63974;47.538;18.972;2024-03-06T06:21:02;26.60;;;13.15;;
75400;SDS011;63974;47.538;18.972;2024-03-06T06:24:09;30.02;;;13.95;;
75400;SDS011;63974;47.538;18.972;2024-03-06T06:27:15;55.77;;;20.47;;
75400;SDS011;63974;47.538;18.972;2024-03-06T06:30:18;53.03;;;19.40;;
75400;SDS011;63974;47.538;18.972;2024-03-06T06:33:20;52.75;;;19.80;;
75400;SDS011;63974;47.538;18.972;2024-03-06T06:36:24;57.33;;;22.15;;
75400;SDS011;63974;47.538;18.972;2024-03-06T06:39:26;42.58;;;17.45;;
75400;SDS011;63974;47.538;18.972;2024-03-06T06:42:29;37.50;;;16.83;;
75400;SDS011;63974;47.538;18.972;2024-03-06T06:45:32;44.20;;;17.80;;
75400;SDS011;63974;47.538;18.972;2024-03-06T06:48:34;36.70;;;15.43;;
75400;SDS011;63974;47.538;18.972;2024-03-06T06:51:37;38.45;;;15.35;;
75400;SDS011;63974;47.538;18.972;2024-03-06T06:54:40;39.17;;;17.13;;
75400;SDS011;63974;47.538;18.972;2024-03-06T06:57:43;43.67;;;16.30;;
75400;SDS011;63974;47.538;18.972;2024-03-06T07:00:46;31.87;;;13.00;;
75400;SDS011;63974;47.538;18.972;2024-03-06T07:03:48;35.20;;;13.88;;
75400;SDS011;63974;47.538;18.972;2024-03-06T07:06:51;35.28;;;13.00;;
75400;SDS011;63974;47.538;18.972;2024-03-06T07:09:54;31.52;;;13.05;;
75400;SDS011;63974;47.538;18.972;2024-03-06T07:12:57;31.30;;;12.47;;
75400;SDS011;63974;47.538;18.972;2024-03-06T07:15:59;34.27;;;12.90;;
75400;SDS011;63974;47.538;18.972;2024-03-06T07:19:05;30.33;;;13.50;;
75400;SDS011;63974;47.538;18.972;2024-03-06T07:22:08;34.92;;;13.25;;
75400;SDS011;63974;47.538;18.972;2024-03-06T07:25:11;33.25;;;14.25;;
75400;SDS011;63974;47.538;18.972;2024-03-06T07:28:13;32.13;;;13.43;;
75400;SDS011;63974;47.538;18.972;2024-03-06T07:31:16;29.50;;;13.60;;
75400;SDS011;63974;47.538;18.972;2024-03-06T07:34:19;29.63;;;12.00;;
75400;SDS011;63974;47.538;18.972;2024-03-06T07:37:23;34.00;;;14.85;;
75400;SDS011;63974;47.538;18.972;2024-03-06T07:40:26;35.35;;;14.98;;
75400;SDS011;63974;47.538;18.972;2024-03-06T07:43:29;31.00;;;13.97;;
75400;SDS011;63974;47.538;18.972;2024-03-06T07:46:31;34.57;;;14.13;;
75400;SDS011;63974;47.538;18.972;2024-03-06T07:49:36;35.17;;;14.48;;
75400;SDS011;63974;47.538;18.972;2024-03-06T07:52:39;32.38;;;14.52;;
75400;SDS011;63974;47.538;18.972;2024-03-06T07:55:42;33.05;;;15.15;;
75400;SDS011;63974;47.538;18.972;2024-03-06T07:58:45;32.03;;;13.97;;
75400;SDS011;63974;47.538;18.972;2024-03-06T08:01:50;26.73;;;11.73;;
75400;SDS011;63974;47.538;18.972;2024-03-06T08:04:53;30.13;;;14.23;;
75400;SDS011;63974;47.538;18.972;2024-03-06T08:07:55;26.33;;;12.25;;
75400;SDS011;63974;47.538;18.972;2024-03-06T08:10:58;30.70;;;13.52;;
75400;SDS011;63974;47.538;18.972;2024-03-06T08:14:01;28.23;;;13.57;;
75400;SDS011;63974;47.538;18.972;2024-03-06T08:17:04;27.40;;;13.00;;
75400;SDS011;63974;47.538;18.972;2024-03-06T08:20:08;31.05;;;13.10;;
75400;SDS011;63974;47.538;18.972;2024-03-06T08:23:11;28.67;;;12.95;;
75400;SDS011;63974;47.538;18.972;2024-03-06T08:26:14;25.83;;;11.63;;
75400;SDS011;63974;47.538;18.972;2024-03-06T08:29:17;29.13;;;11.50;;
75400;SDS011;63974;47.538;18.972;2024-03-06T08:32:19;27.27;;;12.27;;
75400;SDS011;63974;47.538;18.972;2024-03-06T08:35:22;27.88;;;11.93;;
75400;SDS011;63974;47.538;18.972;2024-03-06T08:38:28;26.42;;;13.07;;
75400;SDS011;63974;47.538;18.972;2024-03-06T08:41:31;27.58;;;13.27;;
75400;SDS011;63974;47.538;18.972;2024-03-06T08:44:34;29.17;;;11.93;;
75400;SDS011;63974;47.538;18.972;2024-03-06T08:47:38;26.63;;;12.37;;
75400;SDS011;63974;47.538;18.972;2024-03-06T08:50:41;29.58;;;13.20;;
75400;SDS011;63974;47.538;18.972;2024-03-06T08:53:44;26.65;;;12.43;;
75400;SDS011;63974;47.538;18.972;2024-03-06T08:56:47;31.13;;;12.75;;
75400;SDS011;63974;47.538;18.972;2024-03-06T08:59:50;30.80;;;13.57;;
75400;SDS011;63974;47.538;18.972;2024-03-06T09:02:55;29.83;;;14.17;;
75400;SDS011;63974;47.538;18.972;2024-03-06T09:05:57;31.15;;;14.13;;
75400;SDS011;63974;47.538;18.972;2024-03-06T09:09:02;26.05;;;11.77;;
75400;SDS011;63974;47.538;18.972;2024-03-06T09:12:08;24.80;;;12.13;;
75400;SDS011;63974;47.538;18.972;2024-03-06T09:15:14;26.83;;;12.53;;
75400;SDS011;63974;47.538;18.972;2024-03-06T09:18:17;30.20;;;14.40;;
75400;SDS011;63974;47.538;18.972;2024-03-06T09:21:20;24.90;;;11.68;;
75400;SDS011;63974;47.538;18.972;2024-03-06T09:24:24;24.60;;;13.02;;
75400;SDS011;63974;47.538;18.972;2024-03-06T09:27:30;29.30;;;13.38;;
75400;SDS011;63974;47.538;18.972;2024-03-06T09:30:35;28.27;;;11.93;;
75400;SDS011;63974;47.538;18.972;2024-03-06T09:33:38;25.57;;;11.93;;
75400;SDS011;63974;47.538;18.972;2024-03-06T09:36:45;28.13;;;12.63;;
75400;SDS011;63974;47.538;18.972;2024-03-06T09:39:49;27.80;;;12.93;;
75400;SDS011;63974;47.538;18.972;2024-03-06T09:42:52;29.80;;;14.15;;
75400;SDS011;63974;47.538;18.972;2024-03-06T09:45:55;28.23;;;12.27;;
75400;SDS011;63974;47.538;18.972;2024-03-06T09:48:59;33.77;;;15.00;;
75400;SDS011;63974;47.538;18.972;2024-03-06T09:52:01;29.85;;;14.25;;
75400;SDS011;63974;47.538;18.972;2024-03-06T09:55:06;28.88;;;13.00;;
75400;SDS011;63974;47.538;18.972;2024-03-06T09:58:12;25.02;;;11.13;;
75400;SDS011;63974;47.538;18.972;2024-03-06T10:01:15;28.20;;;12.93;;
75400;SDS011;63974;47.538;18.972;2024-03-06T10:04:20;27.90;;;13.93;;
75400;SDS011;63974;47.538;18.972;2024-03-06T10:07:24;25.67;;;13.02;;
75400;SDS011;63974;47.538;18.972;2024-03-06T10:10:29;25.58;;;12.65;;
75400;SDS011;63974;47.538;18.972;2024-03-06T10:13:32;26.67;;;12.77;;
75400;SDS011;63974;47.538;18.972;2024-03-06T10:16:35;26.93;;;10.57;;
75400;SDS011;63974;47.538;18.972;2024-03-06T10:19:41;25.10;;;12.03;;
75400;SDS011;63974;47.538;18.972;2024-03-06T10:22:51;30.27;;;13.70;;
75400;SDS011;63974;47.538;18.972;2024-03-06T10:26:02;26.27;;;12.27;;
75400;SDS011;63974;47.538;18.972;2024-03-06T10:29:05;21.48;;;11.75;;
75400;SDS011;63974;47.538;18.972;2024-03-06T10:32:08;26.03;;;12.30;;
75400;SDS011;63974;47.538;18.972;2024-03-06T10:35:18;23.60;;;11.87;;
75400;SDS011;63974;47.538;18.972;2024-03-06T10:38:22;21.13;;;11.05;;
75400;SDS011;63974;47.538;18.972;2024-03-06T10:41:29;21.48;;;10.85;;
75400;SDS011;63974;47.538;18.972;2024-03-06T10:44:35;20.55;;;10.52;;
75400;SDS011;63974;47.538;18.972;2024-03-06T10:47:45;25.03;;;11.90;;
75400;SDS011;63974;47.538;18.972;2024-03-06T10:50:51;24.70;;;11.73;;
75400;SDS011;63974;47.538;18.972;2024-03-06T10:53:55;22.33;;;11.68;;
75400;SDS011;63974;47.538;18.972;2024-03-06T10:57:00;21.38;;;10.07;;
75400;SDS011;63974;47.538;18.972;2024-03-06T11:00:04;20.55;;;10.50;;
75400;SDS011;63974;47.538;18.972;2024-03-06T11:03:08;23.00;;;11.30;;
75400;SDS011;63974;47.538;18.972;2024-03-06T11:06:16;22.20;;;12.47;;
75400;SDS011;63974;47.538;18.972;2024-03-06T11:09:20;24.10;;;11.88;;
75400;SDS011;63974;47.538;18.972;2024-03-06T11:12:33;18.33;;;9.88;;
75400;SDS011;63974;47.538;18.972;2024-03-06T11:15:37;19.27;;;10.45;;
75400;SDS011;63974;47.538;18.972;2024-03-06T11:18:40;19.63;;;9.60;;
75400;SDS011;63974;47.538;18.972;2024-03-06T11:21:45;19.70;;;9.33;;
75400;SDS011;63974;47.538;18.972;2024-03-06T11:24:50;18.33;;;9.55;;
75400;SDS011;63974;47.538;18.972;2024-03-06T11:28:02;21.60;;;10.20;;
75400;SDS011;63974;47.538;18.972;2024-03-06T11:31:09;19.88;;;10.52;;
75400;SDS011;63974;47.538;18.972;2024-03-06T11:34:22;21.60;;;10.97;;
75400;SDS011;63974;47.538;18.972;2024-03-06T11:37:24;20.47;;;10.33;;
75400;SDS011;63974;47.538;18.972;2024-03-06T11:40:27;18.67;;;10.13;;
75400;SDS011;63974;47.538;18.972;2024-03-06T11:43:31;20.35;;;10.20;;
75400;SDS011;63974;47.538;18.972;2024-03-06T11:46:56;15.40;;;8.80;;
75400;SDS011;63974;47.538;18.972;2024-03-06T11:50:02;16.30;;;8.27;;
75400;SDS011;63974;47.538;18.972;2024-03-06T11:53:05;17.47;;;8.33;;
75400;SDS011;63974;47.538;18.972;2024-03-06T11:56:12;15.75;;;8.70;;
75400;SDS011;63974;47.538;18.972;2024-03-06T11:59:15;15.52;;;9.00;;
75400;SDS011;63974;47.538;18.972;2024-03-06T12:02:18;18.92;;;9.40;;
75400;SDS011;63974;47.538;18.972;2024-03-06T12:05:22;18.00;;;8.37;;
75400;SDS011;63974;47.538;18.972;2024-03-06T12:08:25;16.20;;;8.97;;
75400;SDS011;63974;47.538;18.972;2024-03-06T12:11:29;18.40;;;8.43;;
75400;SDS011;63974;47.538;18.972;2024-03-06T12:14:34;16.15;;;8.63;;
75400;SDS011;63974;47.538;18.972;2024-03-06T12:17:44;17.90;;;9.35;;
75400;SDS011;63974;47.538;18.972;2024-03-06T12:20:51;16.77;;;8.43;;
75400;SDS011;63974;47.538;18.972;2024-03-06T12:27:07;15.43;;;8.65;;
75400;SDS011;63974;47.538;18.972;2024-03-06T12:30:10;14.30;;;8.20;;
75400;SDS011;63974;47.538;18.972;2024-03-06T12:33:16;16.10;;;7.78;;
75400;SDS011;63974;47.538;18.972;2024-03-06T12:36:24;12.60;;;7.10;;
75400;SDS011;63974;47.538;18.972;2024-03-06T12:39:28;13.53;;;7.10;;
75400;SDS011;63974;47.538;18.972;2024-03-06T12:42:35;12.35;;;7.47;;
75400;SDS011;63974;47.538;18.972;2024-03-06T12:45:38;13.85;;;7.40;;
75400;SDS011;63974;47.538;18.972;2024-03-06T12:48:41;15.60;;;8.00;;
75400;SDS011;63974;47.538;18.972;2024-03-06T12:51:44;12.37;;;7.03;;
75400;SDS011;63974;47.538;18.972;2024-03-06T12:54:47;12.40;;;7.27;;
75400;SDS011;63974;47.538;18.972;2024-03-06T12:57:51;16.05;;;7.47;;
75400;SDS011;63974;47.538;18.972;2024-03-06T13:00:54;13.98;;;6.60;;
75400;SDS011;63974;47.538;18.972;2024-03-06T13:03:57;21.27;;;9.50;;
75400;SDS011;63974;47.538;18.972;2024-03-06T13:07:08;15.73;;;9.10;;
75400;SDS011;63974;47.538;18.972;2024-03-06T13:10:11;17.07;;;8.30;;
75400;SDS011;63974;47.538;18.972;2024-03-06T13:13:14;17.15;;;9.13;;
75400;SDS011;63974;47.538;18.972;2024-03-06T13:16:17;17.20;;;9.13;;
75400;SDS011;63974;47.538;18.972;2024-03-06T13:19:20;16.58;;;9.15;;
75400;SDS011;63974;47.538;18.972;2024-03-06T13:22:24;17.43;;;8.77;;
75400;SDS011;63974;47.538;18.972;2024-03-06T13:25:27;18.10;;;10.13;;
75400;SDS011;63974;47.538;18.972;2024-03-06T13:28:30;20.50;;;10.23;;
75400;SDS011;63974;47.538;18.972;2024-03-06T13:31:33;18.98;;;9.55;;
75400;SDS011;63974;47.538;18.972;2024-03-06T13:34:36;18.65;;;9.18;;
75400;SDS011;63974;47.538;18.972;2024-03-06T13:37:42;17.67;;;9.40;;
75400;SDS011;63974;47.538;18.972;2024-03-06T13:40:46;14.03;;;7.93;;
75400;SDS011;63974;47.538;18.972;2024-03-06T13:43:51;17.05;;;8.40;;
75400;SDS011;63974;47.538;18.972;2024-03-06T13:46:53;15.32;;;8.75;;
75400;SDS011;63974;47.538;18.972;2024-03-06T13:49:56;17.83;;;8.75;;
75400;SDS011;63974;47.538;18.972;2024-03-06T13:52:59;22.27;;;9.97;;
75400;SDS011;63974;47.538;18.972;2024-03-06T13:56:02;16.90;;;8.67;;
75400;SDS011;63974;47.538;18.972;2024-03-06T13:59:05;17.05;;;9.07;;
75400;SDS011;63974;47.538;18.972;2024-03-06T14:02:08;17.75;;;9.52;;
75400;SDS011;63974;47.538;18.972;2024-03-06T14:05:11;15.65;;;9.10;;
75400;SDS011;63974;47.538;18.972;2024-03-06T14:08:14;19.20;;;9.23;;
75400;SDS011;63974;47.538;18.972;2024-03-06T14:11:19;16.00;;;9.80;;
75400;SDS011;63974;47.538;18.972;2024-03-06T14:14:22;17.83;;;9.18;;
75400;SDS011;63974;47.538;18.972;2024-03-06T14:17:25;15.45;;;8.35;;
75400;SDS011;63974;47.538;18.972;2024-03-06T14:20:28;17.85;;;9.25;;
75400;SDS011;63974;47.538;18.972;2024-03-06T14:23:33;14.57;;;9.20;;
75400;SDS011;63974;47.538;18.972;2024-03-06T14:26:39;14.93;;;8.37;;
75400;SDS011;63974;47.538;18.972;2024-03-06T14:29:42;15.20;;;8.80;;
75400;SDS011;63974;47.538;18.972;2024-03-06T14:32:45;19.02;;;8.77;;
75400;SDS011;63974;47.538;18.972;2024-03-06T14:35:48;15.82;;;9.63;;
75400;SDS011;63974;47.538;18.972;2024-03-06T14:38:52;19.13;;;9.63;;
75400;SDS011;63974;47.538;18.972;2024-03-06T14:41:55;12.50;;;8.17;;
75400;SDS011;63974;47.538;18.972;2024-03-06T14:44:58;13.07;;;7.85;;
75400;SDS011;63974;47.538;18.972;2024-03-06T14:48:35;13.27;;;8.00;;
75400;SDS011;63974;47.538;18.972;2024-03-06T14:51:38;15.32;;;9.57;;
75400;SDS011;63974;47.538;18.972;2024-03-06T14:54:41;16.00;;;8.30;;
75400;SDS011;63974;47.538;18.972;2024-03-06T14:57:46;18.60;;;11.50;;
75400;SDS011;63974;47.538;18.972;2024-03-06T15:00:49;18.17;;;9.85;;
75400;SDS011;63974;47.538;18.972;2024-03-06T15:03:53;14.70;;;9.30;;
75400;SDS011;63974;47.538;18.972;2024-03-06T15:06:56;14.38;;;8.82;;
75400;SDS011;63974;47.538;18.972;2024-03-06T15:09:59;14.03;;;9.00;;
75400;SDS011;63974;47.538;18.972;2024-03-06T15:13:02;17.63;;;9.43;;
75400;SDS011;63974;47.538;18.972;2024-03-06T15:16:05;15.73;;;9.32;;
75400;SDS011;63974;47.538;18.972;2024-03-06T15:19:10;16.05;;;8.82;;
75400;SDS011;63974;47.538;18.972;2024-03-06T15:22:13;15.85;;;9.70;;
75400;SDS011;63974;47.538;18.972;2024-03-06T15:25:17;15.80;;;9.47;;
75400;SDS011;63974;47.538;18.972;2024-03-06T15:28:21;18.07;;;11.13;;
75400;SDS011;63974;47.538;18.972;2024-03-06T15:31:24;19.30;;;8.75;;
75400;SDS011;63974;47.538;18.972;2024-03-06T15:34:27;12.95;;;8.85;;
75400;SDS011;63974;47.538;18.972;2024-03-06T15:37:31;15.23;;;8.55;;
75400;SDS011;63974;47.538;18.972;2024-03-06T15:40:34;12.27;;;7.57;;
75400;SDS011;63974;47.538;18.972;2024-03-06T15:43:37;17.20;;;8.70;;
75400;SDS011;63974;47.538;18.972;2024-03-06T15:46:40;15.13;;;9.07;;
75400;SDS011;63974;47.538;18.972;2024-03-06T15:49:53;17.30;;;8.43;;
75400;SDS011;63974;47.538;18.972;2024-03-06T15:52:57;15.95;;;9.65;;
75400;SDS011;63974;47.538;18.972;2024-03-06T15:56:01;15.53;;;9.17;;
75400;SDS011;63974;47.538;18.972;2024-03-06T15:59:04;14.87;;;9.33;;
75400;SDS011;63974;47.538;18.972;2024-03-06T16:02:08;18.27;;;9.60;;
75400;SDS011;63974;47.538;18.972;2024-03-06T16:05:11;17.52;;;9.25;;
75400;SDS011;63974;47.538;18.972;2024-03-06T16:08:14;16.60;;;9.93;;
75400;SDS011;63974;47.538;18.972;2024-03-06T16:11:17;16.40;;;8.67;;
75400;SDS011;63974;47.538;18.972;2024-03-06T16:14:21;15.30;;;9.30;;
75400;SDS011;63974;47.538;18.972;2024-03-06T16:17:24;17.83;;;9.48;;
75400;SDS011;63974;47.538;18.972;2024-03-06T16:20:27;16.02;;;9.10;;
75400;SDS011;63974;47.538;18.972;2024-03-06T16:23:30;16.33;;;8.98;;
75400;SDS011;63974;47.538;18.972;2024-03-06T16:26:33;13.80;;;8.73;;
75400;SDS011;63974;47.538;18.972;2024-03-06T16:29:36;18.83;;;10.03;;
75400;SDS011;63974;47.538;18.972;2024-03-06T16:32:40;17.30;;;10.05;;
75400;SDS011;63974;47.538;18.972;2024-03-06T16:35:43;21.17;;;11.07;;
75400;SDS011;63974;47.538;18.972;2024-03-06T16:38:46;17.67;;;10.02;;
75400;SDS011;63974;47.538;18.972;2024-03-06T16:41:49;18.20;;;10.10;;
75400;SDS011;63974;47.538;18.972;2024-03-06T16:44:52;16.13;;;9.60;;
75400;SDS011;63974;47.538;18.972;2024-03-06T16:47:55;16.80;;;9.50;;
75400;SDS011;63974;47.538;18.972;2024-03-06T16:51:03;18.05;;;9.48;;
75400;SDS011;63974;47.538;18.972;2024-03-06T16:54:05;16.27;;;9.07;;
75400;SDS011;63974;47.538;18.972;2024-03-06T16:57:10;14.30;;;9.00;;
75400;SDS011;63974;47.538;18.972;2024-03-06T17:00:14;23.23;;;10.70;;
75400;SDS011;63974;47.538;18.972;2024-03-06T17:03:17;15.23;;;9.30;;
75400;SDS011;63974;47.538;18.972;2024-03-06T17:06:20;21.23;;;10.98;;
75400;SDS011;63974;47.538;18.972;2024-03-06T17:09:23;19.95;;;11.15;;
75400;SDS011;63974;47.538;18.972;2024-03-06T17:12:26;17.70;;;9.77;;
75400;SDS011;63974;47.538;18.972;2024-03-06T17:15:29;26.67;;;11.87;;
75400;SDS011;63974;47.538;18.972;2024-03-06T17:18:33;19.75;;;10.80;;
75400;SDS011;63974;47.538;18.972;2024-03-06T17:21:37;18.60;;;10.55;;
75400;SDS011;63974;47.538;18.972;2024-03-06T17:24:40;20.85;;;11.15;;
75400;SDS011;63974;47.538;18.972;2024-03-06T17:27:44;20.00;;;10.53;;
75400;SDS011;63974;47.538;18.972;2024-03-06T17:30:47;21.37;;;10.67;;
75400;SDS011;63974;47.538;18.972;2024-03-06T17:33:50;19.65;;;10.18;;
75400;SDS011;63974;47.538;18.972;2024-03-06T17:36:53;21.67;;;10.23;;
75400;SDS011;63974;47.538;18.972;2024-03-06T17:39:55;27.27;;;12.65;;
75400;SDS011;63974;47.538;18.972;2024-03-06T17:42:58;24.57;;;11.17;;
75400;SDS011;63974;47.538;18.972;2024-03-06T17:46:01;24.13;;;11.00;;
75400;SDS011;63974;47.538;18.972;2024-03-06T17:49:04;20.70;;;10.88;;
75400;SDS011;63974;47.538;18.972;2024-03-06T17:52:07;26.35;;;12.02;;